Time;durP1;ratioP1;P1;durP2;ratioP2;P2;SDS_P1;SDS_P2;PMS_P1;PMS_P2;Temp;Humidity;BMP_temperature;BMP_pressure;BME280_temperature;BME280_humidity;BME280_pressure;Samples;Min_cycle;Max_cycle;Signal;HPM_P1;HPM_P2
2022/10/13 00:01:36;;;;;;;4.77;2.40;;;;;;;11.01;59.33;101788.97;4909194;28;97358;-49
2022/10/13 00:04:01;;;;;;;2.80;2.03;;;;;;;11.00;59.51;101792.19;4908966;28;115818;-48
2022/10/13 00:06:26;;;;;;;3.97;2.27;;;;;;;10.97;59.54;101798.63;4905012;28;108024;-47
2022/10/13 00:08:52;;;;;;;5.83;2.33;;;;;;;10.97;59.50;101784.84;4907366;28;97157;-48
2022/10/13 00:11:24;;;;;;;4.53;2.60;;;;;;;10.93;59.40;101782.28;4907973;28;96979;-54
2022/10/13 00:13:50;;;;;;;4.33;2.43;;;;;;;10.89;59.36;101775.41;4910063;28;97962;-48
2022/10/13 00:16:18;;;;;;;4.90;2.27;;;;;;;10.88;59.52;101774.66;4909749;28;100249;-48
2022/10/13 00:18:44;;;;;;;3.33;2.03;;;;;;;10.88;59.40;101776.63;4907826;28;96839;-48
2022/10/13 00:21:11;;;;;;;6.23;2.30;;;;;;;10.83;59.38;101783.56;4907541;28;97413;-48
2022/10/13 00:23:38;;;;;;;4.23;2.40;;;;;;;10.80;59.61;101778.22;4908665;28;97442;-48
2022/10/13 00:26:05;;;;;;;9.20;2.40;;;;;;;10.77;59.52;101773.66;4909830;28;98324;-49
2022/10/13 00:28:31;;;;;;;3.53;2.73;;;;;;;10.76;59.55;101774.88;4905171;28;97626;-48
2022/10/13 00:30:57;;;;;;;2.50;1.93;;;;;;;10.74;59.57;101772.59;4907017;28;97514;-47
2022/10/13 00:33:22;;;;;;;2.47;2.10;;;;;;;10.73;59.70;101773.81;4907824;28;97281;-49
2022/10/13 00:35:48;;;;;;;4.60;3.33;;;;;;;10.72;59.58;101772.31;4909354;28;115021;-49
2022/10/13 00:38:18;;;;;;;3.00;2.10;;;;;;;10.71;59.68;101772.75;4906410;28;97109;-47
2022/10/13 00:40:49;;;;;;;4.83;2.47;;;;;;;10.64;59.63;101764.84;4909596;28;97146;-51
2022/10/13 00:43:24;;;;;;;3.03;2.20;;;;;;;10.60;59.83;101772.50;4909670;28;97841;-49
2022/10/13 00:45:50;;;;;;;3.23;2.07;;;;;;;10.54;59.55;101761.38;4908647;28;100169;-49
2022/10/13 00:48:19;;;;;;;5.33;2.57;;;;;;;10.53;59.67;101771.59;4909559;28;96992;-49
2022/10/13 00:50:45;;;;;;;3.80;2.60;;;;;;;10.50;59.63;101769.03;4906142;28;97241;-49
2022/10/13 00:53:12;;;;;;;6.13;2.30;;;;;;;10.48;59.77;101763.22;4907035;28;96976;-50
2022/10/13 00:55:40;;;;;;;3.27;2.20;;;;;;;10.47;59.99;101772.69;4908436;28;98370;-49
2022/10/13 00:58:09;;;;;;;2.93;2.20;;;;;;;10.46;59.90;101763.69;4904795;28;97279;-49
2022/10/13 01:00:34;;;;;;;4.27;2.83;;;;;;;10.45;59.84;101764.91;4905052;28;97037;-49
2022/10/13 01:03:01;;;;;;;6.90;3.43;;;;;;;10.45;59.96;101767.66;4905655;28;97361;-50
2022/10/13 01:05:27;;;;;;;3.40;2.83;;;;;;;10.44;59.95;101774.38;4909177;28;97430;-48
2022/10/13 01:07:53;;;;;;;3.97;2.03;;;;;;;10.47;59.76;101759.72;4907850;28;96935;-48
2022/10/13 01:11:14;;;;;;;6.27;2.47;;;;;;;10.47;60.37;101770.72;4908933;28;97110;-49
2022/10/13 01:14:04;;;;;;;2.30;1.90;;;;;;;10.45;60.50;101758.66;4844974;28;101810;-52
2022/10/13 01:16:34;;;;;;;4.53;1.90;;;;;;;10.47;60.06;101758.94;4906475;28;103258;-50
2022/10/13 01:19:32;;;;;;;5.20;2.40;;;;;;;10.49;60.65;101760.00;4908428;28;97326;-47
2022/10/13 01:22:03;;;;;;;1.93;1.83;;;;;;;10.52;60.03;101752.81;4907281;28;97651;-48
2022/10/13 01:24:40;;;;;;;6.30;2.10;;;;;;;10.53;60.06;101749.59;4907329;28;97427;-48
2022/10/13 01:27:42;;;;;;;3.83;2.50;;;;;;;10.54;60.59;101756.63;4905247;28;96909;-48
2022/10/13 01:30:21;;;;;;;2.20;2.00;;;;;;;10.53;60.53;101744.09;4906908;28;96824;-48
2022/10/13 01:32:57;;;;;;;2.60;2.30;;;;;;;10.55;60.39;101747.13;4907133;28;97648;-48
2022/10/13 01:35:28;;;;;;;3.40;2.30;;;;;;;10.57;60.26;101740.41;4908664;28;97403;-48
2022/10/13 01:37:53;;;;;;;2.53;2.27;;;;;;;10.57;60.13;101746.69;4907635;28;96999;-48
2022/10/13 01:40:28;;;;;;;3.37;2.20;;;;;;;10.60;60.20;101742.22;4907395;28;98652;-49
2022/10/13 01:43:14;;;;;;;3.07;2.00;;;;;;;10.62;60.27;101739.75;4908188;28;97077;-49
2022/10/13 01:45:48;;;;;;;3.83;2.10;;;;;;;10.63;60.31;101733.81;4909730;28;103235;-49
2022/10/13 01:48:15;;;;;;;6.87;2.10;;;;;;;10.63;60.18;101735.78;4904691;28;101664;-49
2022/10/13 01:50:42;;;;;;;9.73;2.20;;;;;;;10.66;60.15;101738.38;4907735;28;97194;-49
2022/10/13 01:53:08;;;;;;;5.40;2.70;;;;;;;10.68;60.33;101735.16;4906666;28;97205;-49
2022/10/13 01:55:34;;;;;;;2.73;2.47;;;;;;;10.68;60.24;101738.66;4903970;28;97213;-48
2022/10/13 01:57:59;;;;;;;6.20;2.43;;;;;;;10.69;60.25;101728.41;4905708;28;102774;-49
2022/10/13 02:00:25;;;;;;;4.87;2.77;;;;;;;10.67;60.45;101728.13;4906861;28;97386;-48
2022/10/13 02:03:05;;;;;;;2.53;2.33;;;;;;;10.64;60.65;101718.81;4908086;28;97253;-49
2022/10/13 02:05:50;;;;;;;2.53;2.30;;;;;;;10.57;60.58;101722.66;4908338;28;102471;-49
2022/10/13 02:08:36;;;;;;;3.83;2.27;;;;;;;10.52;60.77;101714.28;4907653;28;96883;-49
2022/10/13 02:11:12;;;;;;;4.57;3.23;;;;;;;10.48;60.35;101713.72;4908844;28;97262;-48
2022/10/13 02:13:41;;;;;;;2.70;2.40;;;;;;;10.46;60.47;101705.91;4907648;28;97033;-47
2022/10/13 02:16:08;;;;;;;3.57;2.40;;;;;;;10.45;60.48;101706.38;4907612;28;97569;-52
2022/10/13 02:18:34;;;;;;;3.10;1.93;;;;;;;10.41;60.37;101694.78;4907910;28;97370;-49
2022/10/13 02:21:02;;;;;;;2.87;2.67;;;;;;;10.40;60.46;101699.50;4906914;28;104546;-48
2022/10/13 02:23:27;;;;;;;2.57;2.27;;;;;;;10.39;60.50;101694.47;4908175;28;96923;-49
2022/10/13 02:25:55;;;;;;;3.00;2.20;;;;;;;10.34;60.34;101695.09;4903617;28;97972;-49
2022/10/13 02:28:21;;;;;;;2.60;1.80;;;;;;;10.29;60.21;101713.00;4906197;28;97342;-49
2022/10/13 02:30:47;;;;;;;3.57;2.30;;;;;;;10.27;60.36;101698.97;4907461;28;97200;-47
2022/10/13 02:33:14;;;;;;;2.73;2.23;;;;;;;10.25;60.36;101695.13;4908637;28;96900;-49
2022/10/13 02:35:40;;;;;;;3.40;2.80;;;;;;;10.21;60.36;101695.31;4907451;28;97853;-49
2022/10/13 02:38:05;;;;;;;2.93;2.57;;;;;;;10.19;60.35;101694.25;4907093;28;97621;-49
2022/10/13 02:40:31;;;;;;;3.90;2.67;;;;;;;10.18;60.51;101690.72;4908112;28;97234;-49
2022/10/13 02:42:56;;;;;;;2.40;1.70;;;;;;;10.18;60.49;101687.97;4904289;28;97065;-49
2022/10/13 02:45:22;;;;;;;3.07;1.87;;;;;;;10.17;60.64;101685.72;4906205;28;114555;-49
2022/10/13 02:47:47;;;;;;;3.67;2.50;;;;;;;10.16;60.44;101684.94;4907563;28;96879;-48
2022/10/13 02:50:13;;;;;;;3.27;2.30;;;;;;;10.14;60.51;101689.38;4906068;28;97263;-49
2022/10/13 02:52:38;;;;;;;2.27;2.00;;;;;;;10.11;60.56;101693.81;4908694;28;97204;-49
2022/10/13 02:55:04;;;;;;;2.90;2.23;;;;;;;10.10;60.59;101689.53;4905398;28;102033;-49
2022/10/13 02:57:30;;;;;;;2.60;1.90;;;;;;;10.11;60.62;101685.56;4904768;28;97394;-48
2022/10/13 02:59:55;;;;;;;6.73;2.20;;;;;;;10.12;60.56;101686.31;4906086;28;96905;-49
2022/10/13 03:02:21;;;;;;;2.33;2.00;;;;;;;10.13;60.63;101694.13;4905107;28;97002;-49
2022/10/13 03:04:47;;;;;;;2.93;2.67;;;;;;;10.14;60.44;101689.38;4906036;28;98257;-48
2022/10/13 03:07:13;;;;;;;3.23;2.20;;;;;;;10.11;60.63;101685.56;4902948;28;98390;-49
2022/10/13 03:09:38;;;;;;;3.47;2.37;;;;;;;10.11;60.58;101677.31;4906666;28;96958;-48
2022/10/13 03:12:04;;;;;;;4.80;2.77;;;;;;;10.09;60.62;101676.25;4900451;28;110337;-49
2022/10/13 03:14:29;;;;;;;3.10;2.43;;;;;;;10.08;60.67;101672.72;4904590;28;97619;-47
2022/10/13 03:16:54;;;;;;;4.07;2.23;;;;;;;10.09;60.70;101676.25;4906173;28;107175;-48
2022/10/13 03:19:20;;;;;;;4.73;2.30;;;;;;;10.09;60.73;101676.97;4907153;28;107344;-49
2022/10/13 03:21:45;;;;;;;3.57;2.67;;;;;;;10.09;60.87;101671.47;4904257;28;97421;-49
2022/10/13 03:24:10;;;;;;;2.30;2.03;;;;;;;10.11;60.86;101665.56;4905807;28;108331;-49
2022/10/13 03:26:36;;;;;;;6.37;2.40;;;;;;;10.10;60.80;101669.50;4906108;28;96954;-49
2022/10/13 03:29:02;;;;;;;2.50;2.30;;;;;;;10.07;60.81;101654.69;4902345;28;96833;-49
2022/10/13 03:31:27;;;;;;;2.20;2.00;;;;;;;10.12;60.82;101670.59;4906952;28;97261;-49
2022/10/13 03:33:53;;;;;;;3.70;2.00;;;;;;;10.13;60.87;101666.63;4909624;28;97018;-49
2022/10/13 03:36:18;;;;;;;2.87;2.17;;;;;;;10.14;60.80;101662.66;4906117;28;106937;-49
2022/10/13 03:38:44;;;;;;;4.63;1.87;;;;;;;10.14;60.79;101670.91;4907692;28;97405;-47
2022/10/13 03:41:12;;;;;;;2.00;1.90;;;;;;;10.12;60.77;101667.84;4910647;28;97840;-49
2022/10/13 03:43:38;;;;;;;3.90;2.03;;;;;;;10.10;60.78;101673.03;4908369;28;97505;-49
2022/10/13 03:46:04;;;;;;;3.63;2.27;;;;;;;10.13;60.84;101674.13;4909050;28;97634;-47
2022/10/13 03:48:31;;;;;;;3.53;2.43;;;;;;;10.15;60.96;101666.94;4901481;28;97492;-48
2022/10/13 03:50:57;;;;;;;4.93;2.13;;;;;;;10.14;60.81;101672.88;4906938;28;97384;-49
2022/10/13 03:53:23;;;;;;;4.60;2.00;;;;;;;10.15;60.78;101671.66;4906398;28;97400;-49
2022/10/13 03:55:53;;;;;;;3.70;2.10;;;;;;;10.15;60.96;101675.19;4908236;28;97038;-49
2022/10/13 03:58:19;;;;;;;6.03;2.70;;;;;;;10.15;60.96;101677.94;4905005;28;97372;-48
2022/10/13 04:00:45;;;;;;;2.07;1.93;;;;;;;10.15;60.90;101672.44;4904111;28;97164;-48
2022/10/13 04:03:10;;;;;;;2.43;2.27;;;;;;;10.14;60.84;101673.66;4905606;28;97683;-49
2022/10/13 04:05:36;;;;;;;2.33;2.10;;;;;;;10.12;61.01;101676.09;4900879;28;97467;-47
2022/10/13 04:08:01;;;;;;;2.20;2.10;;;;;;;10.14;61.00;101670.13;4901055;28;97678;-48
2022/10/13 04:10:27;;;;;;;2.10;2.00;;;;;;;10.16;61.16;101673.19;4905091;28;97275;-49
2022/10/13 04:12:52;;;;;;;3.93;2.13;;;;;;;10.18;60.99;101684.47;4907832;28;96734;-48
2022/10/13 04:15:17;;;;;;;11.07;2.57;;;;;;;10.20;61.03;101676.53;4907405;28;97201;-49
2022/10/13 04:17:43;;;;;;;2.80;1.90;;;;;;;10.21;61.12;101673.31;4899296;28;99444;-49
2022/10/13 04:20:08;;;;;;;2.43;1.70;;;;;;;10.22;61.01;101668.59;4907258;28;97150;-49
2022/10/13 04:22:34;;;;;;;6.13;2.47;;;;;;;10.22;60.98;101668.59;4906721;28;97547;-49
2022/10/13 04:24:59;;;;;;;2.90;2.43;;;;;;;10.22;61.02;101668.59;4905201;28;115050;-48
2022/10/13 04:27:25;;;;;;;3.20;2.03;;;;;;;10.21;61.04;101672.56;4908436;28;97554;-49
2022/10/13 04:29:51;;;;;;;3.87;2.50;;;;;;;10.19;60.97;101664.78;4907410;28;97123;-49
2022/10/13 04:32:16;;;;;;;3.23;1.93;;;;;;;10.17;61.00;101655.47;4904630;28;98354;-48
2022/10/13 04:34:41;;;;;;;2.60;2.10;;;;;;;10.15;61.16;101655.94;4908221;28;98588;-49
2022/10/13 04:37:07;;;;;;;3.33;2.40;;;;;;;10.15;61.11;101652.41;4906275;28;99249;-49
2022/10/13 04:39:32;;;;;;;2.73;2.23;;;;;;;10.16;61.21;101648.44;4905887;28;110866;-49
2022/10/13 04:41:57;;;;;;;4.70;2.50;;;;;;;10.13;61.16;101647.38;4905225;28;97724;-48
2022/10/13 04:44:23;;;;;;;2.60;2.20;;;;;;;10.14;61.38;101645.38;4904487;28;104645;-49
2022/10/13 04:46:48;;;;;;;2.30;2.20;;;;;;;10.13;61.33;101641.88;4901826;28;109660;-49
2022/10/13 04:49:15;;;;;;;3.93;2.43;;;;;;;10.14;61.31;101640.66;4904845;28;102741;-49
2022/10/13 04:51:40;;;;;;;2.77;2.57;;;;;;;10.14;61.39;101645.38;4905658;28;96936;-48
2022/10/13 04:54:06;;;;;;;4.33;2.40;;;;;;;10.15;61.29;101644.16;4906416;28;110411;-49
2022/10/13 04:56:32;;;;;;;3.47;2.90;;;;;;;10.15;61.40;101642.19;4905209;28;97305;-49
2022/10/13 04:58:58;;;;;;;2.47;2.27;;;;;;;10.16;61.45;101648.44;4906168;28;97185;-49
2022/10/13 05:01:24;;;;;;;7.67;2.40;;;;;;;10.16;61.37;101646.44;4905898;28;101229;-49
2022/10/13 05:03:56;;;;;;;2.60;2.40;;;;;;;10.18;61.44;101649.47;4910134;28;97070;-48
2022/10/13 05:06:23;;;;;;;4.40;2.63;;;;;;;10.18;61.31;101646.75;4903229;28;97482;-49
2022/10/13 05:08:49;;;;;;;2.63;2.43;;;;;;;10.18;61.35;101633.00;4905090;28;97541;-49
2022/10/13 05:11:15;;;;;;;8.43;2.67;;;;;;;10.19;61.28;101636.50;4862098;28;1187874;-48
2022/10/13 05:13:41;;;;;;;2.83;2.63;;;;;;;10.19;61.32;101642.78;4909163;28;97524;-49
2022/10/13 05:16:12;;;;;;;3.53;2.93;;;;;;;10.20;61.47;101627.78;4909235;28;97088;-49
2022/10/13 05:18:37;;;;;;;2.30;2.10;;;;;;;10.20;61.41;101625.03;4906061;28;97156;-48
2022/10/13 05:21:17;;;;;;;4.07;2.77;;;;;;;10.21;61.57;101612.06;4906231;28;97990;-49
2022/10/13 05:23:44;;;;;;;6.73;3.07;;;;;;;10.19;61.40;101615.28;4904977;28;101750;-49
2022/10/13 05:26:12;;;;;;;5.77;3.43;;;;;;;10.22;61.55;101616.34;4907230;28;96955;-49
2022/10/13 05:28:38;;;;;;;4.67;3.00;;;;;;;10.22;61.57;101619.81;4905935;28;97085;-49
2022/10/13 05:31:18;;;;;;;3.47;2.90;;;;;;;10.26;61.93;101622.41;4909245;28;97533;-49
2022/10/13 05:33:45;;;;;;;4.53;2.57;;;;;;;10.26;61.67;101625.94;4904631;28;97221;-49
2022/10/13 05:36:13;;;;;;;4.50;2.80;;;;;;;10.29;61.62;101611.25;4906464;28;97178;-49
2022/10/13 05:38:39;;;;;;;3.80;2.57;;;;;;;10.30;61.69;101618.28;4906074;28;96841;-49
2022/10/13 05:41:07;;;;;;;3.57;2.93;;;;;;;10.33;61.73;101611.81;4906175;28;96799;-49
2022/10/13 05:43:33;;;;;;;4.30;2.83;;;;;;;10.35;61.61;101612.13;4900879;28;101479;-49
2022/10/13 05:45:59;;;;;;;7.83;3.30;;;;;;;10.38;61.79;101622.19;4906771;28;96705;-49
2022/10/13 05:48:25;;;;;;;2.73;2.30;;;;;;;10.38;61.84;101613.19;4905891;28;97210;-48
2022/10/13 05:50:51;;;;;;;4.80;2.90;;;;;;;10.40;61.77;101608.72;4905372;28;97540;-49
2022/10/13 05:53:17;;;;;;;4.10;2.60;;;;;;;10.44;61.76;101612.06;4907587;28;97422;-47
2022/10/13 05:55:42;;;;;;;3.27;2.97;;;;;;;10.46;61.84;101606.84;4908939;28;97102;-49
2022/10/13 05:58:08;;;;;;;3.97;2.80;;;;;;;10.50;61.84;101618.47;4907814;28;96951;-49
2022/10/13 06:00:34;;;;;;;2.70;2.40;;;;;;;10.54;61.87;101630.06;4903590;28;97585;-49
2022/10/13 06:03:07;;;;;;;5.07;2.87;;;;;;;10.62;62.08;101615.94;4909298;28;97375;-46
2022/10/13 06:05:32;;;;;;;4.30;2.83;;;;;;;10.62;61.81;101599.41;4904571;28;97512;-51
2022/10/13 06:07:58;;;;;;;3.60;3.10;;;;;;;10.67;61.88;101599.56;4906315;28;97254;-49
2022/10/13 06:10:25;;;;;;;4.27;3.30;;;;;;;10.71;61.81;101599.34;4904443;28;101388;-49
2022/10/13 06:12:50;;;;;;;3.40;2.90;;;;;;;10.75;62.09;101602.69;4905791;28;97892;-49
2022/10/13 06:15:15;;;;;;;4.90;3.20;;;;;;;10.79;62.01;101601.28;4906092;28;97153;-48
2022/10/13 06:17:41;;;;;;;4.80;3.20;;;;;;;10.83;62.20;101596.38;4904091;28;99845;-49
2022/10/13 06:20:07;;;;;;;4.03;3.60;;;;;;;10.87;62.28;101588.69;4905582;28;97067;-49
2022/10/13 06:22:34;;;;;;;7.03;3.37;;;;;;;10.93;62.24;101594.28;4906822;28;98363;-49
2022/10/13 06:24:59;;;;;;;3.53;3.23;;;;;;;10.97;62.29;101586.59;4903711;28;97182;-49
2022/10/13 06:27:25;;;;;;;3.57;3.17;;;;;;;11.03;62.17;101595.75;4905601;28;97475;-49
2022/10/13 06:29:50;;;;;;;4.10;3.33;;;;;;;11.06;62.34;101586.53;4902704;28;97166;-49
2022/10/13 06:32:16;;;;;;;4.20;3.20;;;;;;;11.08;62.26;101590.34;4906597;28;98093;-48
2022/10/13 06:34:42;;;;;;;6.27;3.77;;;;;;;11.14;62.28;101599.47;4905208;28;96745;-49
2022/10/13 06:37:07;;;;;;;5.00;3.90;;;;;;;11.20;62.40;101605.81;4905227;28;97084;-49
2022/10/13 06:39:33;;;;;;;11.20;3.80;;;;;;;11.25;62.20;101599.66;4902604;28;98562;-49
2022/10/13 06:41:58;;;;;;;4.83;3.70;;;;;;;11.28;62.38;101597.97;4905797;28;97720;-53
2022/10/13 06:44:23;;;;;;;3.53;3.23;;;;;;;11.30;62.29;101599.00;4907981;28;97808;-49
2022/10/13 06:46:49;;;;;;;5.33;3.00;;;;;;;11.32;62.34;101579.25;4906597;28;97081;-48
2022/10/13 06:49:14;;;;;;;5.03;3.40;;;;;;;11.34;62.44;101587.78;4904612;28;102254;-49
2022/10/13 06:51:39;;;;;;;4.53;3.13;;;;;;;11.37;62.57;101584.09;4905203;28;97301;-49
2022/10/13 06:54:05;;;;;;;3.30;3.00;;;;;;;11.43;62.47;101584.19;4908215;28;96933;-49
2022/10/13 06:56:30;;;;;;;3.57;3.00;;;;;;;11.46;62.56;101584.00;4905416;28;104942;-48
2022/10/13 06:58:56;;;;;;;3.90;3.50;;;;;;;11.51;62.47;101586.09;4906439;28;96905;-48
2022/10/13 07:01:21;;;;;;;5.70;2.73;;;;;;;11.58;62.48;101588.47;4905793;28;98623;-49
2022/10/13 07:03:50;;;;;;;7.97;4.10;;;;;;;11.63;62.73;101587.78;4904170;28;97223;-56
2022/10/13 07:06:17;;;;;;;3.63;3.10;;;;;;;11.67;62.60;101588.38;4905612;28;97080;-48
2022/10/13 07:08:43;;;;;;;3.97;3.53;;;;;;;11.76;62.61;101593.03;4905060;28;99333;-49
2022/10/13 07:11:11;;;;;;;7.60;3.97;;;;;;;11.81;62.70;101593.13;4905547;28;98111;-49
2022/10/13 07:13:37;;;;;;;7.87;4.17;;;;;;;11.88;62.74;101594.75;4902811;28;96933;-49
2022/10/13 07:16:03;;;;;;;5.07;3.90;;;;;;;11.90;62.86;101584.72;4905323;28;97254;-49
2022/10/13 07:18:30;;;;;;;7.80;4.30;;;;;;;11.98;62.78;101590.63;4905953;28;97105;-49
2022/10/13 07:20:57;;;;;;;3.97;3.07;;;;;;;12.04;62.68;101580.44;4903412;28;100217;-48
2022/10/13 07:23:23;;;;;;;6.43;3.80;;;;;;;12.11;62.82;101579.25;4905451;28;97219;-49
2022/10/13 07:25:48;;;;;;;4.67;3.10;;;;;;;12.16;62.86;101560.06;4902659;28;96988;-49
2022/10/13 07:28:14;;;;;;;4.67;3.67;;;;;;;12.23;63.01;101572.69;4905507;28;97354;-49
2022/10/13 07:30:39;;;;;;;3.90;3.60;;;;;;;12.31;62.83;101577.31;4910720;28;97110;-49
2022/10/13 07:33:05;;;;;;;5.70;4.13;;;;;;;12.40;62.94;101577.19;4903737;28;97169;-49
2022/10/13 07:35:30;;;;;;;11.30;4.20;;;;;;;12.46;63.14;101572.50;4905403;28;97291;-48
2022/10/13 07:37:55;;;;;;;8.57;4.63;;;;;;;12.52;63.08;101570.56;4903277;28;98520;-49
2022/10/13 07:40:21;;;;;;;7.53;4.70;;;;;;;12.60;63.27;101566.13;4903296;28;112733;-49
2022/10/13 07:42:47;;;;;;;10.63;4.60;;;;;;;12.67;63.23;101570.47;4906274;28;97045;-47
2022/10/13 07:45:12;;;;;;;6.50;4.87;;;;;;;12.74;63.21;101576.34;4904466;28;97424;-48
2022/10/13 07:47:37;;;;;;;5.43;4.43;;;;;;;12.85;63.14;101578.47;4903349;28;97629;-49
2022/10/13 07:50:03;;;;;;;7.70;5.13;;;;;;;12.96;63.03;101573.06;4905849;28;97453;-49
2022/10/13 07:52:29;;;;;;;8.10;5.17;;;;;;;13.07;63.10;101575.22;4905748;28;97966;-52
2022/10/13 07:54:55;;;;;;;5.63;4.63;;;;;;;13.15;63.06;101579.81;4906327;28;97122;-48
2022/10/13 07:57:20;;;;;;;7.20;5.33;;;;;;;13.25;63.03;101572.13;4904971;28;97103;-49
2022/10/13 07:59:46;;;;;;;5.57;5.07;;;;;;;13.31;63.16;101568.16;4906070;28;96936;-49
2022/10/13 08:02:12;;;;;;;9.00;4.10;;;;;;;13.38;63.19;101572.50;4904965;28;97408;-49
2022/10/13 08:04:37;;;;;;;5.50;3.87;;;;;;;13.47;63.18;101556.50;4905490;28;97451;-48
2022/10/13 08:07:04;;;;;;;10.00;4.90;;;;;;;13.55;63.15;101559.56;4907063;28;97345;-49
2022/10/13 08:09:30;;;;;;;7.63;4.20;;;;;;;13.65;63.28;101563.66;4903076;28;98606;-49
2022/10/13 08:11:55;;;;;;;5.73;5.13;;;;;;;13.77;63.42;101564.50;4903550;28;96620;-49
2022/10/13 08:14:21;;;;;;;7.47;4.73;;;;;;;13.90;63.03;101559.31;4905427;28;97078;-49
2022/10/13 08:16:47;;;;;;;9.23;4.83;;;;;;;13.99;63.20;101553.59;4907897;28;96937;-49
2022/10/13 08:19:14;;;;;;;7.67;4.67;;;;;;;14.10;63.12;101557.19;4908023;28;98412;-48
2022/10/13 08:21:39;;;;;;;7.70;5.40;;;;;;;14.23;63.31;101540.16;4906662;28;97355;-49
2022/10/13 08:24:06;;;;;;;7.83;5.40;;;;;;;14.33;63.12;101533.16;4909800;28;97239;-47
2022/10/13 08:26:31;;;;;;;7.40;5.70;;;;;;;14.43;62.99;101556.66;4907332;28;98108;-49
2022/10/13 08:28:56;;;;;;;13.30;5.87;;;;;;;14.52;62.97;101553.66;4909987;28;97232;-49
2022/10/13 08:31:22;;;;;;;6.53;5.90;;;;;;;14.61;62.92;101553.41;4907191;28;97626;-50
2022/10/13 08:33:47;;;;;;;5.80;4.73;;;;;;;14.70;62.89;101553.19;4907847;28;96825;-49
2022/10/13 08:36:15;;;;;;;12.73;6.20;;;;;;;14.78;62.81;101557.03;4906359;28;97409;-49
2022/10/13 08:38:40;;;;;;;8.57;6.10;;;;;;;14.84;62.70;101563.34;4911728;28;97754;-49
2022/10/13 08:41:44;;;;;;;7.57;5.60;;;;;;;14.88;63.35;101549.22;4906360;28;97216;-49
2022/10/13 08:44:24;;;;;;;8.90;5.93;;;;;;;14.97;62.84;101560.84;4866728;28;96800;-49
2022/10/13 08:46:58;;;;;;;10.93;6.17;;;;;;;15.07;62.86;101557.84;4865527;28;101951;-49
2022/10/13 08:49:23;;;;;;;12.87;6.30;;;;;;;15.12;62.52;101560.63;4892401;28;97866;-51
2022/10/13 08:51:48;;;;;;;6.83;5.67;;;;;;;15.20;62.56;101555.34;4907361;28;97449;-49
2022/10/13 08:54:18;;;;;;;7.40;6.13;;;;;;;15.26;62.36;101556.09;4910089;28;97216;-49
2022/10/13 08:56:49;;;;;;;10.47;6.27;;;;;;;15.32;62.30;101551.31;4905951;28;97492;-49
2022/10/13 08:59:16;;;;;;;11.77;6.47;;;;;;;15.40;62.28;101566.94;4906734;28;97145;-49
2022/10/13 09:01:47;;;;;;;8.13;4.80;;;;;;;15.47;62.17;101554.63;4904957;28;97201;-49
2022/10/13 09:04:38;;;;;;;6.67;5.30;;;;;;;15.52;62.45;101559.41;4908364;28;96908;-46
2022/10/13 09:07:39;;;;;;;8.60;4.93;;;;;;;15.51;62.90;101547.56;4905551;28;100491;-48
2022/10/13 09:10:06;;;;;;;6.40;4.00;;;;;;;15.58;62.38;101554.63;4848876;28;102310;-49
2022/10/13 09:12:32;;;;;;;10.27;6.17;;;;;;;15.65;62.25;101543.78;4895639;28;97345;-48
2022/10/13 09:15:07;;;;;;;10.33;6.67;;;;;;;15.77;62.16;101541.72;4904110;28;97202;-49
2022/10/13 09:17:33;;;;;;;6.00;5.47;;;;;;;15.89;62.01;101536.94;4905110;28;97890;-49
2022/10/13 09:20:19;;;;;;;9.80;6.60;;;;;;;16.02;61.93;101548.25;4908201;28;97137;-49
2022/10/13 09:23:01;;;;;;;6.00;5.10;;;;;;;16.15;61.74;101557.56;4907811;28;97667;-50
2022/10/13 09:25:26;;;;;;;10.80;5.43;;;;;;;16.29;61.68;101547.44;4904836;28;96796;-48
2022/10/13 09:28:00;;;;;;;16.93;6.03;;;;;;;16.42;61.49;101548.38;4906048;28;97002;-49
2022/10/13 09:30:30;;;;;;;8.97;5.43;;;;;;;16.49;61.28;101541.53;4906227;28;101547;-49
2022/10/13 09:33:20;;;;;;;7.27;4.77;;;;;;;16.56;60.93;101545.81;4907921;28;96767;-49
2022/10/13 09:36:03;;;;;;;9.00;4.50;;;;;;;16.61;61.04;101537.47;4899934;28;96790;-49
2022/10/13 09:38:29;;;;;;;7.10;4.70;;;;;;;16.73;60.88;101543.72;4902901;28;103218;-50
2022/10/13 09:41:25;;;;;;;7.23;5.53;;;;;;;16.85;60.90;101545.94;4905767;28;97290;-50
2022/10/13 09:43:50;;;;;;;9.93;4.63;;;;;;;16.97;60.75;101536.25;4905217;28;97128;-49
2022/10/13 09:46:24;;;;;;;6.77;4.20;;;;;;;17.04;60.76;101537.72;4909560;28;97650;-49
2022/10/13 09:48:52;;;;;;;7.53;5.50;;;;;;;17.10;60.52;101539.19;4904556;28;98656;-47
2022/10/13 09:51:45;;;;;;;7.87;4.87;;;;;;;17.18;60.32;101537.38;4907678;28;97619;-48
2022/10/13 09:54:39;;;;;;;6.97;4.77;;;;;;;17.28;59.78;101537.06;4905679;28;97339;-49
2022/10/13 09:57:29;;;;;;;6.80;4.30;;;;;;;17.33;59.86;101537.00;4903529;28;97577;-47
2022/10/13 10:00:10;;;;;;;5.70;3.87;;;;;;;17.37;59.82;101542.28;4907749;28;101447;-49
2022/10/13 10:03:03;;;;;;;6.90;4.63;;;;;;;17.45;60.12;101546.03;4903333;28;98575;-49
2022/10/13 10:05:47;;;;;;;4.07;3.67;;;;;;;17.50;59.93;101540.44;4902555;28;97141;-49
2022/10/13 10:08:35;;;;;;;9.57;4.67;;;;;;;17.59;59.68;101536.56;4907162;28;96821;-49
2022/10/13 10:11:04;;;;;;;7.03;3.97;;;;;;;17.67;59.74;101543.06;4903966;28;101854;-48
2022/10/13 10:13:29;;;;;;;5.87;4.43;;;;;;;17.78;59.78;101549.28;4898202;28;100179;-49
2022/10/13 10:16:35;;;;;;;7.63;3.83;;;;;;;17.85;59.17;101542.38;4905953;28;97057;-49
2022/10/13 10:19:19;;;;;;;5.07;3.40;;;;;;;17.93;59.04;101540.53;4866254;28;97062;-49
2022/10/13 10:21:55;;;;;;;5.83;3.97;;;;;;;17.97;59.21;101538.94;4899969;28;103228;-50
2022/10/13 10:24:36;;;;;;;9.67;3.90;;;;;;;18.04;58.67;101531.31;4905629;28;97824;-48
2022/10/13 10:27:14;;;;;;;6.77;4.30;;;;;;;18.06;58.77;101528.75;4905631;28;96788;-49
2022/10/13 10:29:53;;;;;;;6.60;4.10;;;;;;;18.11;58.31;101527.94;4906394;28;97379;-50
2022/10/13 10:32:34;;;;;;;8.03;3.97;;;;;;;18.16;58.17;101527.88;4907845;28;100845;-51
2022/10/13 10:35:14;;;;;;;8.73;3.80;;;;;;;18.25;57.99;101521.19;4908290;28;97284;-49
2022/10/13 10:38:13;;;;;;;7.33;3.70;;;;;;;18.27;58.01;101521.41;4904723;28;97730;-49
2022/10/13 10:41:03;;;;;;;11.70;4.20;;;;;;;18.38;58.34;101521.28;4906279;28;96962;-49
2022/10/13 10:43:45;;;;;;;5.10;4.00;;;;;;;18.46;58.17;101519.41;4906960;28;101883;-49
2022/10/13 10:46:35;;;;;;;4.20;3.83;;;;;;;18.55;57.85;101519.06;4905678;28;96927;-48
2022/10/13 10:49:09;;;;;;;15.93;3.70;;;;;;;18.63;58.26;101506.03;4897094;28;96761;-49
2022/10/13 10:51:37;;;;;;;7.13;3.50;;;;;;;18.77;57.89;101504.81;4902686;28;97756;-49
2022/10/13 10:54:33;;;;;;;4.23;3.60;;;;;;;18.88;57.34;101493.50;4907005;28;100735;-49
2022/10/13 10:57:29;;;;;;;4.77;3.50;;;;;;;18.96;56.91;101486.00;4902962;28;102239;-49
2022/10/13 11:00:08;;;;;;;7.17;3.67;;;;;;;19.09;57.14;101482.53;4906586;28;97067;-49
2022/10/13 11:02:46;;;;;;;4.90;4.20;;;;;;;19.21;56.58;101478.28;4904415;28;96737;-48
2022/10/13 11:05:13;;;;;;;5.13;3.17;;;;;;;19.25;57.12;101459.94;4907891;28;102109;-49
2022/10/13 11:07:38;;;;;;;3.93;3.17;;;;;;;19.37;57.39;101464.06;4902794;28;97496;-47
2022/10/13 11:10:12;;;;;;;6.03;3.53;;;;;;;19.54;56.36;101468.59;4904568;28;96889;-48
2022/10/13 11:13:06;;;;;;;4.40;2.87;;;;;;;19.64;56.06;101462.03;4902129;28;96709;-49
2022/10/13 11:15:42;;;;;;;3.90;3.00;;;;;;;19.71;56.12;101460.66;4897049;28;100459;-49
2022/10/13 11:18:45;;;;;;;4.93;3.20;;;;;;;19.72;55.33;101453.78;4904708;28;97316;-50
2022/10/13 11:21:10;;;;;;;5.30;3.53;;;;;;;19.76;56.31;101451.44;4900682;28;97297;-49
2022/10/13 11:23:43;;;;;;;9.37;3.67;;;;;;;19.87;55.49;101442.84;4904206;28;97077;-49
2022/10/13 11:26:24;;;;;;;3.00;2.67;;;;;;;20.00;55.19;101440.78;4903276;28;99108;-47
2022/10/13 11:28:49;;;;;;;6.83;2.90;;;;;;;20.18;55.85;101441.94;4901514;28;97074;-48
2022/10/13 11:31:15;;;;;;;4.10;2.70;;;;;;;20.32;55.68;101442.66;4907751;28;97473;-47
2022/10/13 11:33:40;;;;;;;7.37;2.70;;;;;;;20.43;55.61;101431.25;4907804;28;98599;-49
2022/10/13 11:36:30;;;;;;;3.53;2.60;;;;;;;20.54;54.41;101436.59;4907541;28;98070;-49
2022/10/13 11:39:26;;;;;;;5.17;3.27;;;;;;;20.69;54.08;101431.16;4905533;28;100021;-49